createdAt,value
2019-03-03T00:01:58.160Z,33.33
2019-03-03T00:04:41.761Z,34.37
2019-03-03T00:07:26.178Z,34.90
2019-03-03T00:10:10.406Z,32.77
2019-03-03T00:12:54.313Z,35.13
2019-03-03T00:15:39.079Z,35.53
2019-03-03T00:18:23.039Z,36.00
2019-03-03T00:21:59.911Z,35.87
2019-03-03T00:24:44.155Z,35.80
2019-03-03T00:27:28.018Z,34.83
2019-03-03T00:30:12.114Z,35.80
2019-03-03T00:32:58.466Z,36.73
2019-03-03T00:35:42.923Z,34.33
2019-03-03T00:38:47.482Z,33.03
2019-03-03T00:41:56.518Z,36.17
2019-03-03T00:45:02.461Z,34.37
2019-03-03T00:48:06.637Z,35.20
2019-03-03T00:51:03.974Z,32.30
2019-03-03T00:53:55.134Z,31.52
2019-03-03T00:56:48.488Z,31.00
2019-03-03T00:59:51.584Z,30.60
2019-03-03T01:02:45.273Z,28.33
2019-03-03T01:05:53.035Z,29.02
2019-03-03T01:08:45.126Z,27.00
2019-03-03T01:11:53.594Z,26.43
2019-03-03T01:14:44.781Z,25.48
2019-03-03T01:17:48.025Z,23.80
2019-03-03T01:20:51.162Z,24.07
2019-03-03T01:23:55.143Z,22.50
2019-03-03T01:26:38.995Z,21.30
2019-03-03T01:29:22.915Z,21.43
2019-03-03T01:32:06.792Z,22.27
2019-03-03T01:34:53.085Z,21.33
2019-03-03T01:37:38.918Z,22.00
2019-03-03T01:40:23.437Z,22.03
2019-03-03T01:42:56.464Z,22.00
2019-03-03T01:45:40.362Z,21.17
2019-03-03T01:48:24.321Z,20.70
2019-03-03T01:51:08.637Z,20.90
2019-03-03T01:53:53.003Z,19.27
2019-03-03T01:56:38.450Z,18.57
2019-03-03T01:59:10.693Z,17.80
2019-03-03T02:01:54.179Z,16.42
2019-03-03T02:04:38.030Z,16.20
2019-03-03T02:07:21.623Z,15.00
2019-03-03T02:10:05.488Z,14.47
2019-03-03T02:12:49.907Z,13.40
2019-03-03T02:15:34.436Z,12.78
2019-03-03T02:18:18.648Z,13.03
2019-03-03T02:21:02.517Z,12.70
2019-03-03T02:23:50.876Z,13.43
2019-03-03T02:26:35.234Z,13.77
2019-03-03T02:29:19.481Z,13.18
2019-03-03T02:32:05.670Z,13.07
2019-03-03T02:34:50.111Z,13.37
2019-03-03T02:37:33.882Z,13.00
2019-03-03T02:40:17.934Z,13.20
2019-03-03T02:43:02.248Z,13.00
2019-03-03T02:45:45.975Z,13.90
2019-03-03T02:48:30.732Z,13.60
2019-03-03T02:51:15.986Z,12.93
2019-03-03T02:54:00.141Z,12.27
2019-03-03T02:56:45.534Z,12.18
2019-03-03T02:59:29.394Z,13.00
2019-03-03T03:02:34.985Z,11.63
2019-03-03T03:05:41.503Z,11.53
2019-03-03T03:08:32.769Z,11.40
2019-03-03T03:11:26.454Z,10.40
2019-03-03T03:14:29.760Z,10.60
2019-03-03T03:17:33.640Z,10.30
2019-03-03T03:20:36.953Z,10.47
2019-03-03T03:23:44.960Z,9.95
2019-03-03T03:26:35.155Z,9.60
2019-03-03T03:29:38.594Z,9.97
2019-03-03T03:32:44.181Z,9.43
2019-03-03T03:35:52.899Z,8.28
2019-03-03T03:38:56.919Z,9.00
2019-03-03T03:41:46.438Z,9.30
2019-03-03T03:44:50.043Z,9.37
2019-03-03T03:47:47.472Z,8.05
2019-03-03T03:50:39.044Z,8.50
2019-03-03T03:53:29.894Z,9.30
2019-03-03T04:02:50.775Z,8.20
2019-03-03T04:05:54.056Z,7.50
2019-03-03T04:08:44.493Z,8.00
2019-03-03T04:11:34.554Z,7.37
2019-03-03T04:14:44.768Z,6.97
2019-03-03T04:17:35.347Z,7.23
2019-03-03T04:20:38.331Z,7.47
2019-03-03T04:23:34.798Z,7.20
2019-03-03T04:26:26.146Z,6.60
2019-03-03T04:29:25.299Z,6.67
2019-03-03T04:32:15.263Z,7.83
2019-03-03T04:35:06.765Z,6.60
2019-03-03T04:38:10.199Z,6.70
2019-03-03T04:41:15.120Z,7.40
2019-03-03T04:44:03.723Z,6.83
2019-03-03T04:47:09.230Z,7.80
2019-03-03T04:50:07.725Z,7.73
2019-03-03T04:53:18.279Z,6.85
2019-03-03T04:56:22.488Z,7.73
2019-03-03T04:59:27.486Z,7.37
2019-03-03T05:02:30.547Z,8.15
2019-03-03T05:05:35.208Z,7.97
2019-03-03T05:08:25.699Z,8.37
2019-03-03T05:11:29.079Z,8.47
2019-03-03T05:14:24.893Z,8.00
2019-03-03T05:20:11.421Z,8.83
2019-03-03T05:22:55.187Z,8.37
2019-03-03T05:25:39.378Z,8.88
2019-03-03T05:28:23.357Z,8.80
2019-03-03T05:31:07.571Z,8.88
2019-03-03T05:33:51.711Z,9.90
2019-03-03T05:36:35.548Z,9.30
2019-03-03T05:39:19.378Z,9.00
2019-03-03T05:42:03.238Z,9.70
2019-03-03T05:44:47.095Z,8.40
2019-03-03T05:47:31.093Z,9.37
2019-03-03T05:50:15.312Z,11.23
2019-03-03T05:52:59.309Z,11.37
2019-03-03T05:55:42.812Z,10.73
2019-03-03T05:58:26.516Z,10.40
2019-03-03T06:00:59.282Z,11.00
2019-03-03T06:03:43.098Z,11.13
2019-03-03T06:06:27.147Z,9.90
2019-03-03T06:09:11.167Z,10.60
2019-03-03T06:11:55.748Z,10.77
2019-03-03T06:14:40.535Z,9.97
2019-03-03T06:17:24.562Z,10.53
2019-03-03T06:20:09.123Z,10.67
2019-03-03T06:22:54.239Z,11.93
2019-03-03T06:25:40.955Z,12.40
2019-03-03T06:28:25.393Z,11.90
2019-03-03T06:31:11.611Z,11.67
2019-03-03T06:33:55.459Z,11.80
2019-03-03T06:36:39.298Z,11.40
2019-03-03T06:39:23.560Z,12.00
2019-03-03T06:42:07.619Z,11.47
2019-03-03T06:44:52.020Z,12.43
2019-03-03T06:47:35.878Z,12.47
2019-03-03T06:50:20.497Z,12.75
2019-03-03T06:53:04.084Z,13.20
2019-03-03T06:55:48.506Z,12.43
2019-03-03T06:58:32.481Z,12.73
2019-03-03T07:01:16.913Z,13.27
2019-03-03T07:04:00.567Z,12.63
2019-03-03T07:06:46.541Z,13.13
2019-03-03T07:09:30.298Z,13.63
2019-03-03T07:12:14.344Z,13.67
2019-03-03T07:14:58.437Z,14.77
2019-03-03T07:17:42.873Z,14.43
2019-03-03T07:20:28.268Z,14.33
2019-03-03T07:23:12.209Z,14.07
2019-03-03T07:25:57.093Z,15.03
2019-03-03T07:28:41.123Z,14.75
2019-03-03T07:31:25.540Z,14.03
2019-03-03T07:34:09.096Z,12.70
2019-03-03T07:36:52.958Z,12.87
2019-03-03T07:39:36.600Z,13.57
2019-03-03T07:42:22.717Z,12.97
2019-03-03T07:45:06.568Z,12.83
2019-03-03T07:47:50.928Z,14.17
2019-03-03T07:50:34.752Z,14.37
2019-03-03T07:53:19.149Z,14.53
2019-03-03T07:56:04.196Z,15.40
2019-03-03T07:58:48.090Z,15.13
2019-03-03T08:01:31.956Z,14.87
2019-03-03T08:04:15.852Z,15.00
2019-03-03T08:07:00.152Z,15.27
2019-03-03T08:09:43.888Z,16.10
2019-03-03T08:12:27.936Z,16.12
2019-03-03T08:15:15.450Z,14.23
2019-03-03T08:17:59.550Z,15.10
2019-03-03T08:20:43.172Z,14.95
2019-03-03T08:23:27.506Z,15.63
2019-03-03T08:26:11.570Z,14.30
2019-03-03T08:28:55.785Z,13.95
2019-03-03T08:31:39.278Z,13.63
2019-03-03T08:34:23.395Z,13.83
2019-03-03T08:39:51.601Z,13.13
2019-03-03T08:48:53.205Z,12.55
2019-03-03T08:51:42.511Z,12.43
2019-03-03T08:54:48.482Z,11.77
2019-03-03T08:57:52.896Z,11.78
2019-03-03T09:03:59.319Z,11.70
2019-03-03T09:06:49.262Z,10.93
2019-03-03T09:09:52.654Z,11.30
2019-03-03T09:12:55.682Z,11.30
2019-03-03T09:18:59.275Z,10.83
2019-03-03T09:22:04.644Z,10.93
2019-03-03T09:25:07.554Z,10.10
2019-03-03T09:28:11.301Z,9.33
2019-03-03T09:31:07.121Z,10.57
2019-03-03T09:34:00.757Z,15.17
2019-03-03T09:37:05.035Z,18.20
2019-03-03T09:40:09.700Z,12.10
2019-03-03T09:43:29.700Z,10.10
2019-03-03T09:46:33.415Z,8.40
2019-03-03T09:49:29.487Z,9.10
2019-03-03T09:52:33.188Z,7.87
2019-03-03T09:55:31.935Z,8.50
2019-03-03T09:58:35.572Z,8.77
2019-03-03T10:01:40.667Z,8.65
2019-03-03T10:04:45.076Z,7.50
2019-03-03T10:07:48.778Z,7.13
2019-03-03T10:10:43.108Z,7.45
2019-03-03T10:13:36.872Z,7.20
2019-03-03T10:16:40.469Z,7.60
2019-03-03T10:19:41.450Z,7.87
2019-03-03T10:22:48.387Z,7.70
2019-03-03T10:28:53.574Z,7.83
2019-03-03T10:35:00.992Z,7.33
2019-03-03T10:38:05.641Z,7.17
2019-03-03T10:41:03.809Z,6.77
2019-03-03T10:44:12.910Z,7.27
2019-03-03T10:47:18.861Z,7.33
2019-03-03T10:50:22.895Z,6.90
2019-03-03T10:53:12.045Z,7.13
2019-03-03T10:56:21.741Z,7.13
2019-03-03T10:59:25.800Z,7.43
2019-03-03T11:02:29.472Z,7.07
2019-03-03T11:05:38.397Z,7.58
2019-03-03T11:08:42.444Z,6.43
2019-03-03T11:11:45.666Z,6.77
2019-03-03T11:14:37.428Z,6.77
2019-03-03T11:17:33.476Z,5.73
2019-03-03T11:20:24.037Z,6.87
2019-03-03T11:23:28.566Z,5.97
2019-03-03T11:26:34.001Z,7.67
2019-03-03T11:29:52.677Z,6.00
2019-03-03T11:33:01.936Z,5.17
2019-03-03T11:35:52.619Z,4.42
2019-03-03T11:39:00.779Z,4.87
2019-03-03T11:42:18.389Z,4.67
2019-03-03T11:45:13.112Z,4.60
2019-03-03T11:51:50.446Z,4.63
2019-03-03T11:54:41.557Z,5.00
2019-03-03T11:57:46.394Z,4.50
2019-03-03T12:00:37.726Z,4.80
2019-03-03T12:03:41.607Z,5.00
2019-03-03T12:06:33.753Z,5.10
2019-03-03T12:09:24.789Z,4.57
2019-03-03T12:12:16.314Z,5.05
2019-03-03T12:15:24.160Z,5.27
2019-03-03T12:18:29.297Z,5.25
2019-03-03T12:21:22.793Z,4.80
2019-03-03T12:24:05.063Z,4.70
2019-03-03T12:27:08.062Z,4.47
2019-03-03T12:30:10.060Z,5.00
2019-03-03T12:33:19.833Z,4.33
2019-03-03T12:36:17.072Z,4.17
2019-03-03T12:39:21.383Z,4.47
2019-03-03T12:42:16.254Z,4.17
2019-03-03T12:45:11.934Z,4.20
2019-03-03T12:48:08.847Z,4.17
2019-03-03T12:51:04.571Z,4.10
2019-03-03T12:54:08.131Z,4.60
2019-03-03T13:00:07.263Z,4.78
2019-03-03T13:03:11.779Z,4.67
2019-03-03T13:06:07.903Z,4.80
2019-03-03T13:09:05.850Z,4.90
2019-03-03T13:12:09.484Z,4.63
2019-03-03T13:15:03.704Z,5.47
2019-03-03T13:18:07.237Z,5.40
2019-03-03T13:21:12.389Z,5.92
2019-03-03T13:24:06.404Z,5.97
2019-03-03T13:27:10.654Z,5.73
2019-03-03T13:30:14.040Z,6.08
2019-03-03T13:33:18.022Z,6.03
2019-03-03T13:36:26.975Z,7.67
2019-03-03T13:39:30.475Z,6.77
2019-03-03T13:42:30.000Z,6.50
2019-03-03T13:45:14.670Z,6.87
2019-03-03T13:47:59.171Z,6.35
2019-03-03T13:50:42.967Z,6.47
2019-03-03T13:53:27.520Z,6.87
2019-03-03T13:56:11.912Z,6.50
2019-03-03T13:58:55.974Z,6.47
2019-03-03T14:01:43.420Z,6.28
2019-03-03T14:04:26.876Z,5.87
2019-03-03T14:07:10.731Z,5.17
2019-03-03T14:09:54.472Z,5.03
2019-03-03T14:12:39.150Z,4.80
2019-03-03T14:15:24.724Z,4.40
2019-03-03T14:18:08.896Z,4.43
2019-03-03T14:20:53.255Z,4.47
2019-03-03T14:23:37.697Z,4.63
2019-03-03T14:26:22.011Z,4.57
2019-03-03T14:29:07.033Z,4.10
2019-03-03T14:31:40.065Z,3.63
2019-03-03T14:34:38.772Z,3.52
2019-03-03T14:37:11.536Z,3.83
2019-03-03T14:39:55.655Z,3.67
2019-03-03T14:42:39.737Z,3.47
2019-03-03T14:45:24.207Z,3.47
2019-03-03T14:48:07.756Z,3.50
2019-03-03T14:50:52.667Z,3.50
2019-03-03T14:53:37.165Z,3.70
2019-03-03T14:56:21.671Z,4.23
2019-03-03T14:59:06.245Z,4.27
2019-03-03T15:01:50.251Z,4.03
2019-03-03T15:04:35.223Z,4.22
2019-03-03T15:07:20.025Z,4.05
2019-03-03T15:10:03.872Z,4.03
2019-03-03T15:12:49.631Z,3.95
2019-03-03T15:15:35.206Z,4.00
2019-03-03T15:21:27.463Z,4.73
2019-03-03T15:24:11.643Z,5.60
2019-03-03T15:26:55.885Z,4.17
2019-03-03T15:29:39.974Z,4.35
2019-03-03T15:32:26.607Z,4.78
2019-03-03T15:35:11.150Z,4.37
2019-03-03T15:37:56.140Z,4.40
2019-03-03T15:40:40.978Z,4.80
2019-03-03T15:43:25.181Z,4.77
2019-03-03T15:46:08.857Z,4.90
2019-03-03T15:48:52.832Z,5.47
2019-03-03T15:51:38.163Z,5.00
2019-03-03T15:54:21.983Z,5.30
2019-03-03T15:57:06.307Z,6.47
2019-03-03T15:59:50.267Z,5.37
2019-03-03T16:02:34.655Z,12.73
2019-03-03T16:05:19.538Z,7.17
2019-03-03T16:08:05.235Z,8.10
2019-03-03T16:10:49.386Z,8.53
2019-03-03T16:13:32.936Z,6.95
2019-03-03T16:19:21.680Z,8.50
2019-03-03T16:22:06.077Z,8.73
2019-03-03T16:24:50.908Z,10.37
2019-03-03T16:27:34.517Z,10.67
2019-03-03T16:30:07.858Z,11.73
2019-03-03T16:32:51.739Z,11.90
2019-03-03T16:35:24.580Z,12.37
2019-03-03T16:38:09.187Z,13.05
2019-03-03T16:40:53.982Z,12.43
2019-03-03T16:43:38.460Z,12.15
2019-03-03T16:46:22.617Z,12.60
2019-03-03T16:49:06.284Z,11.07
2019-03-03T16:51:52.195Z,11.90
2019-03-03T16:54:37.415Z,11.30
2019-03-03T16:57:21.442Z,11.63
2019-03-03T17:00:06.965Z,9.63
2019-03-03T17:02:55.383Z,9.03
2019-03-03T17:05:39.683Z,9.00
2019-03-03T17:08:24.508Z,8.38
2019-03-03T17:11:08.148Z,9.40
2019-03-03T17:13:52.281Z,9.53
2019-03-03T17:16:37.179Z,9.80
2019-03-03T17:19:21.038Z,14.43
2019-03-03T17:22:05.718Z,12.87
2019-03-03T17:24:49.575Z,10.70
2019-03-03T17:27:33.880Z,10.18
2019-03-03T17:30:20.293Z,8.70
2019-03-03T17:33:04.724Z,8.07
2019-03-03T17:35:49.081Z,8.80
2019-03-03T17:38:32.973Z,9.63
2019-03-03T17:41:17.133Z,9.68
2019-03-03T17:44:01.637Z,9.43
2019-03-03T17:46:45.250Z,8.83
2019-03-03T17:49:29.393Z,8.47
2019-03-03T17:52:16.291Z,9.73
2019-03-03T17:54:59.888Z,9.43
2019-03-03T17:57:44.673Z,9.93
2019-03-03T18:00:30.162Z,9.47
2019-03-03T18:03:15.005Z,8.87
2019-03-03T18:06:00.966Z,10.37
2019-03-03T18:08:44.484Z,10.27
2019-03-03T18:11:28.781Z,13.40
2019-03-03T18:14:12.498Z,13.17
2019-03-03T18:16:57.015Z,15.75
2019-03-03T18:19:41.229Z,19.43
2019-03-03T18:22:24.974Z,11.70
2019-03-03T18:25:09.515Z,10.63
2019-03-03T18:27:53.516Z,10.57
2019-03-03T18:30:37.695Z,11.50
2019-03-03T18:33:21.578Z,11.60
2019-03-03T18:36:05.599Z,11.13
2019-03-03T18:38:51.155Z,11.53
2019-03-03T18:41:36.010Z,11.73
2019-03-03T18:44:20.408Z,11.53
2019-03-03T18:47:04.898Z,11.97
2019-03-03T18:49:49.516Z,11.38
2019-03-03T18:52:33.005Z,11.37
2019-03-03T18:55:17.451Z,12.23
2019-03-03T18:58:01.339Z,13.53
2019-03-03T19:00:46.337Z,13.40
2019-03-03T19:03:30.684Z,12.07
2019-03-03T19:06:14.944Z,12.78
2019-03-03T19:08:58.767Z,12.90
2019-03-03T19:11:43.052Z,13.20
2019-03-03T19:14:28.515Z,12.93
2019-03-03T19:17:14.143Z,14.70
2019-03-03T19:19:59.663Z,13.67
2019-03-03T19:22:44.154Z,14.93
2019-03-03T19:25:27.582Z,15.30
2019-03-03T19:28:11.632Z,15.05
2019-03-03T19:30:57.747Z,14.90
2019-03-03T19:36:45.918Z,15.57
2019-03-03T19:39:29.764Z,16.20
2019-03-03T19:42:13.763Z,15.27
2019-03-03T19:44:58.185Z,16.90
2019-03-03T19:47:42.318Z,15.03
2019-03-03T19:50:25.934Z,16.37
2019-03-03T19:53:10.711Z,17.57
2019-03-03T19:55:54.622Z,17.67
2019-03-03T19:58:40.914Z,17.10
2019-03-03T20:01:26.369Z,19.67
2019-03-03T20:04:10.237Z,18.87
2019-03-03T20:06:54.717Z,17.70
2019-03-03T20:09:39.463Z,18.52
2019-03-03T20:12:23.275Z,18.90
2019-03-03T20:14:55.489Z,18.30
2019-03-03T20:17:39.037Z,18.87
2019-03-03T20:20:23.214Z,16.73
2019-03-03T20:23:07.598Z,17.33
2019-03-03T20:25:51.291Z,17.07
2019-03-03T20:28:35.255Z,17.00
2019-03-03T20:31:19.621Z,15.87
2019-03-03T20:34:07.845Z,15.83
2019-03-03T20:36:52.030Z,16.62
2019-03-03T20:39:36.336Z,16.03
2019-03-03T20:42:10.176Z,16.37
2019-03-03T20:44:54.986Z,15.07
2019-03-03T20:47:39.497Z,16.27
2019-03-03T20:50:23.242Z,15.40
2019-03-03T20:53:07.700Z,15.67
2019-03-03T20:55:51.607Z,14.73
2019-03-03T20:58:35.287Z,15.17
2019-03-03T21:01:19.343Z,15.07
2019-03-03T21:04:03.382Z,16.43
2019-03-03T21:06:47.440Z,15.73
2019-03-03T21:09:30.996Z,17.90
2019-03-03T21:12:15.291Z,17.57
2019-03-03T21:14:58.811Z,17.77
2019-03-03T21:17:42.958Z,19.10
2019-03-03T21:20:30.059Z,18.48
2019-03-03T21:23:14.557Z,18.93
2019-03-03T21:25:58.585Z,18.05
2019-03-03T21:28:42.656Z,19.73
2019-03-03T21:31:26.205Z,18.20
2019-03-03T21:34:10.646Z,18.12
2019-03-03T21:36:55.743Z,18.05
2019-03-03T21:39:39.216Z,17.67
2019-03-03T21:42:24.501Z,17.67
2019-03-03T21:45:09.076Z,16.97
2019-03-03T21:47:52.650Z,16.87
2019-03-03T21:50:42.950Z,17.33
2019-03-03T21:53:26.940Z,16.90
2019-03-03T21:56:11.636Z,17.43
2019-03-03T21:58:55.159Z,16.73
2019-03-03T22:01:39.602Z,15.97
2019-03-03T22:04:25.127Z,16.13
2019-03-03T22:07:09.017Z,15.80
2019-03-03T22:09:53.413Z,16.80
2019-03-03T22:12:38.205Z,14.33
2019-03-03T22:15:21.979Z,15.03
2019-03-03T22:18:07.063Z,14.97
2019-03-03T22:20:50.739Z,15.32
2019-03-03T22:23:34.693Z,14.40
2019-03-03T22:26:19.075Z,14.28
2019-03-03T22:29:03.346Z,13.43
2019-03-03T22:31:36.600Z,13.98
2019-03-03T22:34:20.798Z,13.63
2019-03-03T22:37:05.250Z,12.80
2019-03-03T22:39:49.487Z,12.83
2019-03-03T22:42:33.658Z,12.77
2019-03-03T22:45:17.958Z,12.37
2019-03-03T22:48:02.037Z,12.75
2019-03-03T22:50:46.429Z,11.90
2019-03-03T22:53:30.119Z,12.57
2019-03-03T22:56:14.352Z,12.30
2019-03-03T22:58:59.146Z,11.90
2019-03-03T23:01:43.855Z,12.77
2019-03-03T23:04:48.754Z,12.27
2019-03-03T23:07:35.287Z,11.80
2019-03-03T23:10:39.515Z,12.33
2019-03-03T23:13:29.053Z,12.60
2019-03-03T23:16:33.211Z,13.43
2019-03-03T23:19:39.983Z,14.33
2019-03-03T23:22:30.682Z,14.07
2019-03-03T23:25:33.706Z,13.53
2019-03-03T23:28:07.445Z,14.57
2019-03-03T23:31:09.535Z,14.77
2019-03-03T23:33:53.235Z,13.93
2019-03-03T23:36:36.973Z,14.47
2019-03-03T23:39:23.375Z,14.23
2019-03-03T23:42:07.704Z,14.80
2019-03-03T23:44:52.021Z,14.10
2019-03-03T23:47:35.594Z,14.98
2019-03-03T23:50:19.414Z,16.27
2019-03-03T23:53:04.900Z,16.00
2019-03-03T23:55:49.411Z,15.93
2019-03-03T23:58:33.327Z,15.87
